Terminal Aerodrome Forecast
Issued by NWS King Salmon, AK

Home | Current Version | Previous Version | Text Only | Print | Product List | Glossary On
Versions: 1 2 3 4 5 6 7 8 9 10 11 12 13 14 15 16 17 18 19 20 21 22 23 24 25 26 27 28
000
FTAK31 PANC 211744 AAA
TAFAKN
TAF AMD
PAKN 211744Z 2118/2218 02008KT P6SM FEW120
     FM212100 05010KT P6SM -SN BKN025 BKN070
     FM212300 11011KT 2SM -SN BR OVC005 WS020/16045KT
     FM220600 19008KT 4SM -SN BR SCT005 BKN012
     FM221200 21008KT P6SM VCSH SCT015 BKN035=

USA.gov is the U.S. government's official web portal to all federal, state and local government web resources and services.